sensor_id;sensor_type;location;lat;lon;timestamp;P1;durP1;ratioP1;P2;durP2;ratioP2
9968;SDS011;5025;48.890;9.278;2024-02-16T00:01:13;2.63;;;2.43;;
9968;SDS011;5025;48.890;9.278;2024-02-16T00:03:39;2.80;;;2.60;;
9968;SDS011;5025;48.890;9.278;2024-02-16T00:06:04;3.47;;;2.60;;
9968;SDS011;5025;48.890;9.278;2024-02-16T00:08:30;2.70;;;2.60;;
9968;SDS011;5025;48.890;9.278;2024-02-16T00:10:55;2.70;;;2.50;;
9968;SDS011;5025;48.890;9.278;2024-02-16T00:13:20;2.37;;;2.27;;
9968;SDS011;5025;48.890;9.278;2024-02-16T00:15:46;2.73;;;2.53;;
9968;SDS011;5025;48.890;9.278;2024-02-16T00:18:12;2.40;;;2.30;;
9968;SDS011;5025;48.890;9.278;2024-02-16T00:20:37;2.87;;;2.67;;
9968;SDS011;5025;48.890;9.278;2024-02-16T00:23:03;2.40;;;2.30;;
9968;SDS011;5025;48.890;9.278;2024-02-16T00:25:28;2.40;;;2.30;;
9968;SDS011;5025;48.890;9.278;2024-02-16T00:27:54;2.40;;;2.30;;
9968;SDS011;5025;48.890;9.278;2024-02-16T00:30:19;2.67;;;2.47;;
9968;SDS011;5025;48.890;9.278;2024-02-16T00:32:45;2.60;;;2.40;;
9968;SDS011;5025;48.890;9.278;2024-02-16T00:35:11;2.73;;;2.50;;
9968;SDS011;5025;48.890;9.278;2024-02-16T00:37:36;2.40;;;2.30;;
9968;SDS011;5025;48.890;9.278;2024-02-16T00:40:03;2.40;;;2.20;;
9968;SDS011;5025;48.890;9.278;2024-02-16T00:42:29;2.57;;;2.47;;
9968;SDS011;5025;48.890;9.278;2024-02-16T00:44:56;2.60;;;2.40;;
9968;SDS011;5025;48.890;9.278;2024-02-16T00:47:21;2.50;;;2.30;;
9968;SDS011;5025;48.890;9.278;2024-02-16T00:49:48;2.13;;;2.03;;
9968;SDS011;5025;48.890;9.278;2024-02-16T00:52:14;2.20;;;2.10;;
9968;SDS011;5025;48.890;9.278;2024-02-16T00:54:39;2.33;;;2.20;;
9968;SDS011;5025;48.890;9.278;2024-02-16T00:57:04;2.50;;;2.30;;
9968;SDS011;5025;48.890;9.278;2024-02-16T00:59:29;2.40;;;2.30;;
9968;SDS011;5025;48.890;9.278;2024-02-16T01:01:55;2.70;;;2.50;;
9968;SDS011;5025;48.890;9.278;2024-02-16T01:04:20;2.27;;;2.10;;
9968;SDS011;5025;48.890;9.278;2024-02-16T01:06:45;2.63;;;2.43;;
9968;SDS011;5025;48.890;9.278;2024-02-16T01:09:11;2.57;;;2.37;;
9968;SDS011;5025;48.890;9.278;2024-02-16T01:11:38;2.70;;;2.50;;
9968;SDS011;5025;48.890;9.278;2024-02-16T01:14:05;2.57;;;2.37;;
9968;SDS011;5025;48.890;9.278;2024-02-16T01:16:30;2.90;;;2.70;;
9968;SDS011;5025;48.890;9.278;2024-02-16T01:18:55;3.00;;;2.80;;
9968;SDS011;5025;48.890;9.278;2024-02-16T01:21:21;2.60;;;2.40;;
9968;SDS011;5025;48.890;9.278;2024-02-16T01:23:46;2.83;;;2.63;;
9968;SDS011;5025;48.890;9.278;2024-02-16T01:26:12;2.87;;;2.67;;
9968;SDS011;5025;48.890;9.278;2024-02-16T01:28:37;2.50;;;2.40;;
9968;SDS011;5025;48.890;9.278;2024-02-16T01:31:02;3.20;;;2.90;;
9968;SDS011;5025;48.890;9.278;2024-02-16T01:33:27;3.23;;;2.60;;
9968;SDS011;5025;48.890;9.278;2024-02-16T01:35:54;3.17;;;2.87;;
9968;SDS011;5025;48.890;9.278;2024-02-16T01:38:19;2.80;;;2.60;;
9968;SDS011;5025;48.890;9.278;2024-02-16T01:40:46;2.90;;;2.70;;
9968;SDS011;5025;48.890;9.278;2024-02-16T01:43:11;3.27;;;2.87;;
9968;SDS011;5025;48.890;9.278;2024-02-16T01:45:37;2.70;;;2.50;;
9968;SDS011;5025;48.890;9.278;2024-02-16T01:48:02;3.37;;;2.83;;
9968;SDS011;5025;48.890;9.278;2024-02-16T01:50:28;3.33;;;3.10;;
9968;SDS011;5025;48.890;9.278;2024-02-16T01:52:54;3.17;;;2.90;;
9968;SDS011;5025;48.890;9.278;2024-02-16T01:55:20;3.10;;;2.90;;
9968;SDS011;5025;48.890;9.278;2024-02-16T01:57:46;2.97;;;2.77;;
9968;SDS011;5025;48.890;9.278;2024-02-16T02:00:13;2.97;;;2.77;;
9968;SDS011;5025;48.890;9.278;2024-02-16T02:02:40;3.20;;;3.00;;
9968;SDS011;5025;48.890;9.278;2024-02-16T02:05:06;2.87;;;2.67;;
9968;SDS011;5025;48.890;9.278;2024-02-16T02:07:32;2.77;;;2.57;;
9968;SDS011;5025;48.890;9.278;2024-02-16T02:09:57;2.90;;;2.60;;
9968;SDS011;5025;48.890;9.278;2024-02-16T02:12:22;2.93;;;2.73;;
9968;SDS011;5025;48.890;9.278;2024-02-16T02:14:48;3.20;;;3.00;;
9968;SDS011;5025;48.890;9.278;2024-02-16T02:17:14;2.63;;;2.53;;
9968;SDS011;5025;48.890;9.278;2024-02-16T02:19:39;2.80;;;2.60;;
9968;SDS011;5025;48.890;9.278;2024-02-16T02:22:09;2.60;;;2.40;;
9968;SDS011;5025;48.890;9.278;2024-02-16T02:24:38;2.60;;;2.40;;
9968;SDS011;5025;48.890;9.278;2024-02-16T02:27:03;2.30;;;2.20;;
9968;SDS011;5025;48.890;9.278;2024-02-16T02:29:29;2.60;;;2.50;;
9968;SDS011;5025;48.890;9.278;2024-02-16T02:31:54;2.67;;;2.47;;
9968;SDS011;5025;48.890;9.278;2024-02-16T02:34:20;2.43;;;2.33;;
9968;SDS011;5025;48.890;9.278;2024-02-16T02:36:45;2.47;;;2.37;;
9968;SDS011;5025;48.890;9.278;2024-02-16T02:39:11;2.57;;;2.47;;
9968;SDS011;5025;48.890;9.278;2024-02-16T02:41:38;2.30;;;2.20;;
9968;SDS011;5025;48.890;9.278;2024-02-16T02:44:03;2.33;;;2.23;;
9968;SDS011;5025;48.890;9.278;2024-02-16T02:46:29;2.50;;;2.30;;
9968;SDS011;5025;48.890;9.278;2024-02-16T02:48:54;2.33;;;2.23;;
9968;SDS011;5025;48.890;9.278;2024-02-16T02:51:19;2.70;;;2.50;;
9968;SDS011;5025;48.890;9.278;2024-02-16T02:53:44;3.00;;;2.80;;
9968;SDS011;5025;48.890;9.278;2024-02-16T02:56:10;3.13;;;2.93;;
9968;SDS011;5025;48.890;9.278;2024-02-16T02:58:35;2.50;;;2.40;;
9968;SDS011;5025;48.890;9.278;2024-02-16T03:01:00;2.70;;;2.50;;
9968;SDS011;5025;48.890;9.278;2024-02-16T03:03:25;2.57;;;2.37;;
9968;SDS011;5025;48.890;9.278;2024-02-16T03:05:51;3.60;;;3.30;;
9968;SDS011;5025;48.890;9.278;2024-02-16T03:08:16;4.50;;;3.80;;
9968;SDS011;5025;48.890;9.278;2024-02-16T03:10:41;3.93;;;3.63;;
9968;SDS011;5025;48.890;9.278;2024-02-16T03:13:09;4.40;;;3.60;;
9968;SDS011;5025;48.890;9.278;2024-02-16T03:15:34;3.80;;;3.50;;
9968;SDS011;5025;48.890;9.278;2024-02-16T03:18:01;3.60;;;3.30;;
9968;SDS011;5025;48.890;9.278;2024-02-16T03:20:26;4.03;;;3.60;;
9968;SDS011;5025;48.890;9.278;2024-02-16T03:22:52;3.40;;;3.13;;
9968;SDS011;5025;48.890;9.278;2024-02-16T03:25:17;3.20;;;3.00;;
9968;SDS011;5025;48.890;9.278;2024-02-16T03:27:43;3.33;;;3.13;;
9968;SDS011;5025;48.890;9.278;2024-02-16T03:30:08;3.50;;;3.20;;
9968;SDS011;5025;48.890;9.278;2024-02-16T03:32:34;3.80;;;3.50;;
9968;SDS011;5025;48.890;9.278;2024-02-16T03:34:59;3.73;;;3.40;;
9968;SDS011;5025;48.890;9.278;2024-02-16T03:37:25;3.13;;;2.90;;
9968;SDS011;5025;48.890;9.278;2024-02-16T03:39:50;3.00;;;2.80;;
9968;SDS011;5025;48.890;9.278;2024-02-16T03:42:16;2.50;;;2.37;;
9968;SDS011;5025;48.890;9.278;2024-02-16T03:44:42;2.50;;;2.30;;
9968;SDS011;5025;48.890;9.278;2024-02-16T03:47:08;2.50;;;2.30;;
9968;SDS011;5025;48.890;9.278;2024-02-16T03:49:34;2.30;;;2.20;;
9968;SDS011;5025;48.890;9.278;2024-02-16T03:51:59;2.53;;;2.33;;
9968;SDS011;5025;48.890;9.278;2024-02-16T03:54:24;2.60;;;2.40;;
9968;SDS011;5025;48.890;9.278;2024-02-16T03:56:52;2.33;;;2.20;;
9968;SDS011;5025;48.890;9.278;2024-02-16T03:59:20;2.50;;;2.40;;
9968;SDS011;5025;48.890;9.278;2024-02-16T04:01:46;2.30;;;2.20;;
9968;SDS011;5025;48.890;9.278;2024-02-16T04:04:11;2.57;;;2.40;;
9968;SDS011;5025;48.890;9.278;2024-02-16T04:06:38;2.17;;;2.07;;
9968;SDS011;5025;48.890;9.278;2024-02-16T04:09:03;2.53;;;2.43;;
9968;SDS011;5025;48.890;9.278;2024-02-16T04:11:31;2.50;;;2.40;;
9968;SDS011;5025;48.890;9.278;2024-02-16T04:13:57;2.70;;;2.50;;
9968;SDS011;5025;48.890;9.278;2024-02-16T04:16:22;2.83;;;2.57;;
9968;SDS011;5025;48.890;9.278;2024-02-16T04:18:49;2.40;;;2.30;;
9968;SDS011;5025;48.890;9.278;2024-02-16T04:21:14;3.00;;;2.70;;
9968;SDS011;5025;48.890;9.278;2024-02-16T04:23:40;2.20;;;2.10;;
9968;SDS011;5025;48.890;9.278;2024-02-16T04:26:05;2.07;;;1.97;;
9968;SDS011;5025;48.890;9.278;2024-02-16T04:28:31;2.37;;;2.27;;
9968;SDS011;5025;48.890;9.278;2024-02-16T04:30:57;2.40;;;2.30;;
9968;SDS011;5025;48.890;9.278;2024-02-16T04:33:22;2.93;;;2.63;;
9968;SDS011;5025;48.890;9.278;2024-02-16T04:35:47;2.77;;;2.57;;
9968;SDS011;5025;48.890;9.278;2024-02-16T04:38:13;2.77;;;2.57;;
9968;SDS011;5025;48.890;9.278;2024-02-16T04:40:38;2.63;;;2.40;;
9968;SDS011;5025;48.890;9.278;2024-02-16T04:43:04;2.67;;;2.50;;
9968;SDS011;5025;48.890;9.278;2024-02-16T04:45:29;2.80;;;2.60;;
9968;SDS011;5025;48.890;9.278;2024-02-16T04:47:55;2.30;;;2.20;;
9968;SDS011;5025;48.890;9.278;2024-02-16T04:50:20;2.77;;;2.47;;
9968;SDS011;5025;48.890;9.278;2024-02-16T04:52:45;2.70;;;2.47;;
9968;SDS011;5025;48.890;9.278;2024-02-16T04:55:11;2.40;;;2.30;;
9968;SDS011;5025;48.890;9.278;2024-02-16T04:57:36;2.20;;;2.10;;
9968;SDS011;5025;48.890;9.278;2024-02-16T05:00:02;2.87;;;2.53;;
9968;SDS011;5025;48.890;9.278;2024-02-16T05:02:28;2.57;;;2.37;;
9968;SDS011;5025;48.890;9.278;2024-02-16T05:04:53;2.30;;;2.10;;
9968;SDS011;5025;48.890;9.278;2024-02-16T05:07:19;2.50;;;2.30;;
9968;SDS011;5025;48.890;9.278;2024-02-16T05:09:44;2.03;;;1.93;;
9968;SDS011;5025;48.890;9.278;2024-02-16T05:12:10;1.93;;;1.83;;
9968;SDS011;5025;48.890;9.278;2024-02-16T05:14:35;2.30;;;2.20;;
9968;SDS011;5025;48.890;9.278;2024-02-16T05:17:01;2.03;;;1.93;;
9968;SDS011;5025;48.890;9.278;2024-02-16T05:19:26;1.80;;;1.70;;
9968;SDS011;5025;48.890;9.278;2024-02-16T05:21:51;1.80;;;1.70;;
9968;SDS011;5025;48.890;9.278;2024-02-16T05:24:16;1.90;;;1.80;;
9968;SDS011;5025;48.890;9.278;2024-02-16T05:26:42;1.80;;;1.70;;
9968;SDS011;5025;48.890;9.278;2024-02-16T05:29:07;1.90;;;1.80;;
9968;SDS011;5025;48.890;9.278;2024-02-16T05:31:33;1.90;;;1.80;;
9968;SDS011;5025;48.890;9.278;2024-02-16T05:33:58;2.20;;;2.10;;
9968;SDS011;5025;48.890;9.278;2024-02-16T05:36:23;1.80;;;1.70;;
9968;SDS011;5025;48.890;9.278;2024-02-16T05:38:55;2.07;;;1.97;;
9968;SDS011;5025;48.890;9.278;2024-02-16T05:41:21;2.00;;;1.90;;
9968;SDS011;5025;48.890;9.278;2024-02-16T05:43:46;2.30;;;2.20;;
9968;SDS011;5025;48.890;9.278;2024-02-16T05:46:13;1.97;;;1.87;;
9968;SDS011;5025;48.890;9.278;2024-02-16T05:48:42;2.07;;;1.97;;
9968;SDS011;5025;48.890;9.278;2024-02-16T05:51:11;2.30;;;2.10;;
9968;SDS011;5025;48.890;9.278;2024-02-16T05:53:39;1.90;;;1.80;;
9968;SDS011;5025;48.890;9.278;2024-02-16T05:56:06;1.90;;;1.80;;
9968;SDS011;5025;48.890;9.278;2024-02-16T05:58:32;1.93;;;1.83;;
9968;SDS011;5025;48.890;9.278;2024-02-16T06:00:58;1.83;;;1.73;;
9968;SDS011;5025;48.890;9.278;2024-02-16T06:03:24;2.23;;;2.10;;
9968;SDS011;5025;48.890;9.278;2024-02-16T06:05:49;2.20;;;2.10;;
9968;SDS011;5025;48.890;9.278;2024-02-16T06:08:14;3.03;;;2.50;;
9968;SDS011;5025;48.890;9.278;2024-02-16T06:10:44;2.00;;;1.90;;
9968;SDS011;5025;48.890;9.278;2024-02-16T06:13:15;2.30;;;2.20;;
9968;SDS011;5025;48.890;9.278;2024-02-16T06:15:41;2.67;;;2.50;;
9968;SDS011;5025;48.890;9.278;2024-02-16T06:18:06;2.37;;;2.27;;
9968;SDS011;5025;48.890;9.278;2024-02-16T06:20:31;2.40;;;2.20;;
9968;SDS011;5025;48.890;9.278;2024-02-16T06:22:56;2.50;;;2.40;;
9968;SDS011;5025;48.890;9.278;2024-02-16T06:25:22;2.63;;;2.43;;
9968;SDS011;5025;48.890;9.278;2024-02-16T06:27:47;2.70;;;2.50;;
9968;SDS011;5025;48.890;9.278;2024-02-16T06:30:12;2.30;;;2.20;;
9968;SDS011;5025;48.890;9.278;2024-02-16T06:32:39;2.60;;;2.40;;
9968;SDS011;5025;48.890;9.278;2024-02-16T06:35:06;2.20;;;2.10;;
9968;SDS011;5025;48.890;9.278;2024-02-16T06:37:32;2.50;;;2.30;;
9968;SDS011;5025;48.890;9.278;2024-02-16T06:39:57;2.03;;;1.93;;
9968;SDS011;5025;48.890;9.278;2024-02-16T06:42:22;2.37;;;2.27;;
9968;SDS011;5025;48.890;9.278;2024-02-16T06:44:48;2.53;;;2.33;;
9968;SDS011;5025;48.890;9.278;2024-02-16T06:47:13;2.40;;;2.20;;
9968;SDS011;5025;48.890;9.278;2024-02-16T06:49:38;2.43;;;2.27;;
9968;SDS011;5025;48.890;9.278;2024-02-16T06:52:04;2.63;;;2.43;;
9968;SDS011;5025;48.890;9.278;2024-02-16T06:54:30;2.30;;;2.20;;
9968;SDS011;5025;48.890;9.278;2024-02-16T06:56:55;2.53;;;2.33;;
9968;SDS011;5025;48.890;9.278;2024-02-16T06:59:20;3.00;;;2.80;;
9968;SDS011;5025;48.890;9.278;2024-02-16T07:01:46;3.47;;;3.27;;
9968;SDS011;5025;48.890;9.278;2024-02-16T07:04:11;3.40;;;3.20;;
9968;SDS011;5025;48.890;9.278;2024-02-16T07:06:36;3.20;;;3.00;;
9968;SDS011;5025;48.890;9.278;2024-02-16T07:09:02;2.83;;;2.73;;
9968;SDS011;5025;48.890;9.278;2024-02-16T07:11:27;2.83;;;2.63;;
9968;SDS011;5025;48.890;9.278;2024-02-16T07:13:53;2.53;;;2.43;;
9968;SDS011;5025;48.890;9.278;2024-02-16T07:16:18;3.17;;;2.87;;
9968;SDS011;5025;48.890;9.278;2024-02-16T07:18:43;3.40;;;3.10;;
9968;SDS011;5025;48.890;9.278;2024-02-16T07:21:09;3.53;;;3.03;;
9968;SDS011;5025;48.890;9.278;2024-02-16T07:23:34;3.20;;;3.00;;
9968;SDS011;5025;48.890;9.278;2024-02-16T07:25:59;3.10;;;2.90;;
9968;SDS011;5025;48.890;9.278;2024-02-16T07:28:26;2.97;;;2.77;;
9968;SDS011;5025;48.890;9.278;2024-02-16T07:30:52;3.03;;;2.83;;
9968;SDS011;5025;48.890;9.278;2024-02-16T07:33:18;3.03;;;2.83;;
9968;SDS011;5025;48.890;9.278;2024-02-16T07:35:43;2.80;;;2.60;;
9968;SDS011;5025;48.890;9.278;2024-02-16T07:38:09;2.70;;;2.50;;
9968;SDS011;5025;48.890;9.278;2024-02-16T07:40:34;3.20;;;2.90;;
9968;SDS011;5025;48.890;9.278;2024-02-16T07:43:00;2.50;;;2.30;;
9968;SDS011;5025;48.890;9.278;2024-02-16T07:45:26;2.60;;;2.50;;
9968;SDS011;5025;48.890;9.278;2024-02-16T07:47:51;3.10;;;2.90;;
9968;SDS011;5025;48.890;9.278;2024-02-16T07:50:23;2.63;;;2.43;;
9968;SDS011;5025;48.890;9.278;2024-02-16T07:52:49;2.70;;;2.50;;
9968;SDS011;5025;48.890;9.278;2024-02-16T07:55:15;2.60;;;2.40;;
9968;SDS011;5025;48.890;9.278;2024-02-16T07:57:43;2.90;;;2.60;;
9968;SDS011;5025;48.890;9.278;2024-02-16T08:00:08;2.60;;;2.40;;
9968;SDS011;5025;48.890;9.278;2024-02-16T08:02:35;2.87;;;2.67;;
9968;SDS011;5025;48.890;9.278;2024-02-16T08:05:01;2.50;;;2.40;;
9968;SDS011;5025;48.890;9.278;2024-02-16T08:07:26;3.50;;;3.20;;
9968;SDS011;5025;48.890;9.278;2024-02-16T08:09:52;3.30;;;3.10;;
9968;SDS011;5025;48.890;9.278;2024-02-16T08:12:17;2.80;;;2.60;;
9968;SDS011;5025;48.890;9.278;2024-02-16T08:14:43;2.97;;;2.77;;
9968;SDS011;5025;48.890;9.278;2024-02-16T08:17:08;2.70;;;2.60;;
9968;SDS011;5025;48.890;9.278;2024-02-16T08:19:35;3.60;;;3.30;;
9968;SDS011;5025;48.890;9.278;2024-02-16T08:22:01;3.60;;;3.30;;
9968;SDS011;5025;48.890;9.278;2024-02-16T08:24:28;3.47;;;3.27;;
9968;SDS011;5025;48.890;9.278;2024-02-16T08:26:53;3.23;;;3.03;;
9968;SDS011;5025;48.890;9.278;2024-02-16T08:29:19;3.20;;;2.97;;
9968;SDS011;5025;48.890;9.278;2024-02-16T08:31:45;4.07;;;3.40;;
9968;SDS011;5025;48.890;9.278;2024-02-16T08:34:12;3.50;;;3.30;;
9968;SDS011;5025;48.890;9.278;2024-02-16T08:36:38;3.10;;;2.90;;
9968;SDS011;5025;48.890;9.278;2024-02-16T08:39:05;3.57;;;3.27;;
9968;SDS011;5025;48.890;9.278;2024-02-16T08:41:31;3.07;;;2.87;;
9968;SDS011;5025;48.890;9.278;2024-02-16T08:43:57;4.43;;;2.77;;
9968;SDS011;5025;48.890;9.278;2024-02-16T08:46:22;3.00;;;2.80;;
9968;SDS011;5025;48.890;9.278;2024-02-16T08:48:47;3.00;;;2.80;;
9968;SDS011;5025;48.890;9.278;2024-02-16T08:51:14;3.37;;;3.00;;
9968;SDS011;5025;48.890;9.278;2024-02-16T08:53:39;3.30;;;3.10;;
9968;SDS011;5025;48.890;9.278;2024-02-16T08:56:08;3.00;;;2.80;;
9968;SDS011;5025;48.890;9.278;2024-02-16T08:58:35;3.07;;;2.87;;
9968;SDS011;5025;48.890;9.278;2024-02-16T09:01:00;4.90;;;3.60;;
9968;SDS011;5025;48.890;9.278;2024-02-16T09:03:26;2.90;;;2.80;;
9968;SDS011;5025;48.890;9.278;2024-02-16T09:05:51;2.80;;;2.60;;
9968;SDS011;5025;48.890;9.278;2024-02-16T09:08:16;3.23;;;3.03;;
9968;SDS011;5025;48.890;9.278;2024-02-16T09:10:41;3.00;;;2.70;;
9968;SDS011;5025;48.890;9.278;2024-02-16T09:13:07;2.97;;;2.77;;
9968;SDS011;5025;48.890;9.278;2024-02-16T09:15:34;2.90;;;2.70;;
9968;SDS011;5025;48.890;9.278;2024-02-16T09:17:59;3.07;;;2.77;;
9968;SDS011;5025;48.890;9.278;2024-02-16T09:20:25;3.63;;;3.07;;
9968;SDS011;5025;48.890;9.278;2024-02-16T09:22:50;3.87;;;3.17;;
9968;SDS011;5025;48.890;9.278;2024-02-16T09:25:15;3.30;;;3.00;;
9968;SDS011;5025;48.890;9.278;2024-02-16T09:27:41;3.83;;;2.80;;
9968;SDS011;5025;48.890;9.278;2024-02-16T09:30:09;3.23;;;2.70;;
9968;SDS011;5025;48.890;9.278;2024-02-16T09:32:36;2.90;;;2.60;;
9968;SDS011;5025;48.890;9.278;2024-02-16T09:35:05;2.80;;;2.60;;
9968;SDS011;5025;48.890;9.278;2024-02-16T09:37:30;2.47;;;2.30;;
9968;SDS011;5025;48.890;9.278;2024-02-16T09:39:56;2.80;;;2.57;;
9968;SDS011;5025;48.890;9.278;2024-02-16T09:42:22;3.47;;;2.60;;
9968;SDS011;5025;48.890;9.278;2024-02-16T09:44:48;2.90;;;2.60;;
9968;SDS011;5025;48.890;9.278;2024-02-16T09:47:15;2.70;;;2.50;;
9968;SDS011;5025;48.890;9.278;2024-02-16T09:49:44;2.60;;;2.40;;
9968;SDS011;5025;48.890;9.278;2024-02-16T09:52:10;4.33;;;2.40;;
9968;SDS011;5025;48.890;9.278;2024-02-16T09:54:38;2.83;;;2.50;;
9968;SDS011;5025;48.890;9.278;2024-02-16T09:57:04;2.90;;;2.70;;
9968;SDS011;5025;48.890;9.278;2024-02-16T09:59:29;2.50;;;2.30;;
9968;SDS011;5025;48.890;9.278;2024-02-16T10:02:00;2.73;;;2.53;;
9968;SDS011;5025;48.890;9.278;2024-02-16T10:04:28;2.80;;;2.60;;
9968;SDS011;5025;48.890;9.278;2024-02-16T10:06:54;2.67;;;2.47;;
9968;SDS011;5025;48.890;9.278;2024-02-16T10:09:23;2.60;;;2.40;;
9968;SDS011;5025;48.890;9.278;2024-02-16T10:11:49;3.40;;;3.10;;
9968;SDS011;5025;48.890;9.278;2024-02-16T10:14:14;3.83;;;3.53;;
9968;SDS011;5025;48.890;9.278;2024-02-16T10:16:40;4.20;;;3.40;;
9968;SDS011;5025;48.890;9.278;2024-02-16T10:19:06;4.93;;;3.50;;
9968;SDS011;5025;48.890;9.278;2024-02-16T10:21:32;3.90;;;3.57;;
9968;SDS011;5025;48.890;9.278;2024-02-16T10:26:31;3.10;;;2.80;;
9968;SDS011;5025;48.890;9.278;2024-02-16T10:28:57;2.90;;;2.70;;
9968;SDS011;5025;48.890;9.278;2024-02-16T10:31:25;3.20;;;2.60;;
9968;SDS011;5025;48.890;9.278;2024-02-16T10:34:02;2.80;;;2.60;;
9968;SDS011;5025;48.890;9.278;2024-02-16T10:36:32;4.17;;;3.00;;
9968;SDS011;5025;48.890;9.278;2024-02-16T10:38:59;3.70;;;3.07;;
9968;SDS011;5025;48.890;9.278;2024-02-16T10:41:29;3.50;;;3.20;;
9968;SDS011;5025;48.890;9.278;2024-02-16T10:43:55;4.10;;;3.20;;
9968;SDS011;5025;48.890;9.278;2024-02-16T10:46:21;3.70;;;3.20;;
9968;SDS011;5025;48.890;9.278;2024-02-16T10:48:47;5.73;;;3.27;;
9968;SDS011;5025;48.890;9.278;2024-02-16T10:51:13;4.30;;;2.87;;
9968;SDS011;5025;48.890;9.278;2024-02-16T10:53:42;4.83;;;3.10;;
9968;SDS011;5025;48.890;9.278;2024-02-16T10:56:08;2.97;;;2.73;;
9968;SDS011;5025;48.890;9.278;2024-02-16T10:58:33;2.83;;;2.63;;
9968;SDS011;5025;48.890;9.278;2024-02-16T11:01:07;2.60;;;2.40;;
9968;SDS011;5025;48.890;9.278;2024-02-16T11:03:37;2.70;;;2.50;;
9968;SDS011;5025;48.890;9.278;2024-02-16T11:06:11;2.53;;;2.33;;
9968;SDS011;5025;48.890;9.278;2024-02-16T11:08:43;2.20;;;2.10;;
9968;SDS011;5025;48.890;9.278;2024-02-16T11:11:08;2.30;;;2.10;;
9968;SDS011;5025;48.890;9.278;2024-02-16T11:13:38;2.10;;;2.00;;
9968;SDS011;5025;48.890;9.278;2024-02-16T11:16:08;2.10;;;2.00;;
9968;SDS011;5025;48.890;9.278;2024-02-16T11:18:38;2.07;;;1.97;;
9968;SDS011;5025;48.890;9.278;2024-02-16T11:21:05;1.87;;;1.77;;
9968;SDS011;5025;48.890;9.278;2024-02-16T11:23:32;2.00;;;1.90;;
9968;SDS011;5025;48.890;9.278;2024-02-16T11:26:00;1.97;;;1.80;;
9968;SDS011;5025;48.890;9.278;2024-02-16T11:28:27;2.23;;;2.10;;
9968;SDS011;5025;48.890;9.278;2024-02-16T11:30:53;1.80;;;1.70;;
9968;SDS011;5025;48.890;9.278;2024-02-16T11:33:18;2.10;;;1.90;;
9968;SDS011;5025;48.890;9.278;2024-02-16T11:35:52;2.00;;;1.90;;
9968;SDS011;5025;48.890;9.278;2024-02-16T11:38:18;1.90;;;1.70;;
9968;SDS011;5025;48.890;9.278;2024-02-16T11:40:52;2.03;;;1.93;;
9968;SDS011;5025;48.890;9.278;2024-02-16T11:43:35;2.00;;;1.90;;
9968;SDS011;5025;48.890;9.278;2024-02-16T11:46:13;2.27;;;1.80;;
9968;SDS011;5025;48.890;9.278;2024-02-16T11:48:41;1.90;;;1.80;;
9968;SDS011;5025;48.890;9.278;2024-02-16T11:51:06;2.00;;;1.90;;
9968;SDS011;5025;48.890;9.278;2024-02-16T11:53:32;2.00;;;1.90;;
9968;SDS011;5025;48.890;9.278;2024-02-16T11:55:57;2.33;;;2.13;;
9968;SDS011;5025;48.890;9.278;2024-02-16T11:58:23;2.73;;;2.30;;
9968;SDS011;5025;48.890;9.278;2024-02-16T12:00:49;1.83;;;1.73;;
9968;SDS011;5025;48.890;9.278;2024-02-16T12:03:25;2.37;;;2.00;;
9968;SDS011;5025;48.890;9.278;2024-02-16T12:05:52;1.80;;;1.70;;
9968;SDS011;5025;48.890;9.278;2024-02-16T12:08:22;2.20;;;2.10;;
9968;SDS011;5025;48.890;9.278;2024-02-16T12:10:47;2.00;;;1.90;;
9968;SDS011;5025;48.890;9.278;2024-02-16T12:13:16;1.90;;;1.80;;
9968;SDS011;5025;48.890;9.278;2024-02-16T12:15:43;2.07;;;1.87;;
9968;SDS011;5025;48.890;9.278;2024-02-16T12:18:10;1.73;;;1.63;;
9968;SDS011;5025;48.890;9.278;2024-02-16T12:20:35;1.73;;;1.63;;
9968;SDS011;5025;48.890;9.278;2024-02-16T12:23:10;1.93;;;1.80;;
9968;SDS011;5025;48.890;9.278;2024-02-16T12:25:35;1.80;;;1.70;;
9968;SDS011;5025;48.890;9.278;2024-02-16T12:28:01;1.77;;;1.67;;
9968;SDS011;5025;48.890;9.278;2024-02-16T12:30:26;1.80;;;1.70;;
9968;SDS011;5025;48.890;9.278;2024-02-16T12:32:51;1.90;;;1.80;;
9968;SDS011;5025;48.890;9.278;2024-02-16T12:35:17;2.27;;;2.07;;
9968;SDS011;5025;48.890;9.278;2024-02-16T12:37:43;1.87;;;1.77;;
9968;SDS011;5025;48.890;9.278;2024-02-16T12:40:08;2.20;;;2.00;;
9968;SDS011;5025;48.890;9.278;2024-02-16T12:42:34;2.10;;;1.90;;
9968;SDS011;5025;48.890;9.278;2024-02-16T12:44:59;2.27;;;2.13;;
9968;SDS011;5025;48.890;9.278;2024-02-16T12:47:24;2.60;;;2.40;;
9968;SDS011;5025;48.890;9.278;2024-02-16T12:49:50;2.70;;;2.50;;
9968;SDS011;5025;48.890;9.278;2024-02-16T12:52:19;3.50;;;3.20;;
9968;SDS011;5025;48.890;9.278;2024-02-16T12:54:47;3.60;;;3.30;;
9968;SDS011;5025;48.890;9.278;2024-02-16T12:57:12;6.93;;;4.87;;
9968;SDS011;5025;48.890;9.278;2024-02-16T12:59:38;4.77;;;3.63;;
9968;SDS011;5025;48.890;9.278;2024-02-16T13:02:03;3.50;;;3.20;;
9968;SDS011;5025;48.890;9.278;2024-02-16T13:04:29;4.93;;;3.60;;
9968;SDS011;5025;48.890;9.278;2024-02-16T13:06:56;4.80;;;4.40;;
9968;SDS011;5025;48.890;9.278;2024-02-16T13:09:21;4.70;;;3.50;;
9968;SDS011;5025;48.890;9.278;2024-02-16T13:11:46;4.50;;;3.03;;
9968;SDS011;5025;48.890;9.278;2024-02-16T13:14:19;4.33;;;3.43;;
9968;SDS011;5025;48.890;9.278;2024-02-16T13:16:44;4.97;;;3.07;;
9968;SDS011;5025;48.890;9.278;2024-02-16T13:19:09;7.50;;;3.90;;
9968;SDS011;5025;48.890;9.278;2024-02-16T13:21:34;5.10;;;3.10;;
9968;SDS011;5025;48.890;9.278;2024-02-16T13:24:00;4.93;;;2.90;;
9968;SDS011;5025;48.890;9.278;2024-02-16T13:26:25;4.50;;;2.70;;
9968;SDS011;5025;48.890;9.278;2024-02-16T13:28:50;4.43;;;2.50;;
9968;SDS011;5025;48.890;9.278;2024-02-16T13:31:15;3.43;;;2.40;;
9968;SDS011;5025;48.890;9.278;2024-02-16T13:33:41;3.73;;;2.40;;
9968;SDS011;5025;48.890;9.278;2024-02-16T13:36:06;3.77;;;2.60;;
9968;SDS011;5025;48.890;9.278;2024-02-16T13:38:31;2.97;;;2.23;;
9968;SDS011;5025;48.890;9.278;2024-02-16T13:40:56;3.30;;;2.10;;
9968;SDS011;5025;48.890;9.278;2024-02-16T13:43:22;3.77;;;2.13;;
9968;SDS011;5025;48.890;9.278;2024-02-16T13:45:48;3.67;;;2.33;;
9968;SDS011;5025;48.890;9.278;2024-02-16T13:48:16;3.47;;;2.20;;
9968;SDS011;5025;48.890;9.278;2024-02-16T13:50:43;2.93;;;2.50;;
9968;SDS011;5025;48.890;9.278;2024-02-16T13:53:18;3.83;;;2.20;;
9968;SDS011;5025;48.890;9.278;2024-02-16T13:55:44;2.50;;;2.10;;
9968;SDS011;5025;48.890;9.278;2024-02-16T13:58:10;2.30;;;2.10;;
9968;SDS011;5025;48.890;9.278;2024-02-16T14:00:36;1.80;;;1.70;;
9968;SDS011;5025;48.890;9.278;2024-02-16T14:03:01;2.60;;;1.80;;
9968;SDS011;5025;48.890;9.278;2024-02-16T14:05:30;2.67;;;1.83;;
9968;SDS011;5025;48.890;9.278;2024-02-16T14:07:55;1.80;;;1.70;;
9968;SDS011;5025;48.890;9.278;2024-02-16T14:10:21;2.70;;;1.87;;
9968;SDS011;5025;48.890;9.278;2024-02-16T14:12:47;1.87;;;1.67;;
9968;SDS011;5025;48.890;9.278;2024-02-16T14:15:12;4.70;;;2.30;;
9968;SDS011;5025;48.890;9.278;2024-02-16T14:17:40;5.20;;;2.37;;
9968;SDS011;5025;48.890;9.278;2024-02-16T14:20:07;3.27;;;2.23;;
9968;SDS011;5025;48.890;9.278;2024-02-16T14:22:32;6.43;;;2.47;;
9968;SDS011;5025;48.890;9.278;2024-02-16T14:24:57;3.77;;;2.17;;
9968;SDS011;5025;48.890;9.278;2024-02-16T14:27:22;4.13;;;2.60;;
9968;SDS011;5025;48.890;9.278;2024-02-16T14:29:48;8.27;;;2.43;;
9968;SDS011;5025;48.890;9.278;2024-02-16T14:32:13;4.83;;;2.10;;
9968;SDS011;5025;48.890;9.278;2024-02-16T14:34:38;5.93;;;2.30;;
9968;SDS011;5025;48.890;9.278;2024-02-16T14:37:03;4.47;;;2.50;;
9968;SDS011;5025;48.890;9.278;2024-02-16T14:39:29;4.27;;;2.67;;
9968;SDS011;5025;48.890;9.278;2024-02-16T14:41:54;5.87;;;2.50;;
9968;SDS011;5025;48.890;9.278;2024-02-16T14:44:19;7.03;;;2.20;;
9968;SDS011;5025;48.890;9.278;2024-02-16T14:46:45;4.23;;;2.40;;
9968;SDS011;5025;48.890;9.278;2024-02-16T14:49:10;4.17;;;2.50;;
9968;SDS011;5025;48.890;9.278;2024-02-16T14:51:39;3.37;;;2.00;;
9968;SDS011;5025;48.890;9.278;2024-02-16T14:54:05;5.43;;;2.37;;
9968;SDS011;5025;48.890;9.278;2024-02-16T14:56:31;4.47;;;2.03;;
9968;SDS011;5025;48.890;9.278;2024-02-16T14:58:56;4.23;;;2.43;;
9968;SDS011;5025;48.890;9.278;2024-02-16T15:01:21;4.27;;;2.10;;
9968;SDS011;5025;48.890;9.278;2024-02-16T15:03:47;3.27;;;2.20;;
9968;SDS011;5025;48.890;9.278;2024-02-16T15:06:12;3.83;;;2.30;;
9968;SDS011;5025;48.890;9.278;2024-02-16T15:08:37;4.07;;;2.20;;
9968;SDS011;5025;48.890;9.278;2024-02-16T15:11:02;2.73;;;2.07;;